createdAt,value
2018-08-16T00:00:01.518Z,91.76
2018-08-16T00:05:01.855Z,91.82
2018-08-16T00:10:02.236Z,92.09
2018-08-16T00:15:01.580Z,92.47
2018-08-16T00:20:01.951Z,92.52
2018-08-16T00:25:01.206Z,92.77
2018-08-16T00:30:01.469Z,92.96
2018-08-16T00:35:01.926Z,92.8
2018-08-16T00:40:01.315Z,92.98
2018-08-16T00:45:01.600Z,93.13
2018-08-16T00:50:02.000Z,93.24
2018-08-16T00:55:01.350Z,93.77
2018-08-16T01:00:01.713Z,93.67
2018-08-16T01:05:02.121Z,93.58
2018-08-16T01:10:01.509Z,93.9
2018-08-16T01:15:01.783Z,94.2
2018-08-16T01:20:02.336Z,94.42
2018-08-16T01:25:01.759Z,94.48
2018-08-16T01:30:02.180Z,94.93
2018-08-16T01:35:01.470Z,95.15
2018-08-16T01:40:01.866Z,95.28
2018-08-16T01:45:02.172Z,95.41
2018-08-16T01:50:01.449Z,95.53
2018-08-16T01:55:01.714Z,95.63
2018-08-16T02:00:02.043Z,95.67
2018-08-16T02:05:01.365Z,95.86
2018-08-16T02:10:01.675Z,96.08
2018-08-16T02:15:01.885Z,96.05
2018-08-16T02:20:01.426Z,95.9
2018-08-16T02:25:01.843Z,95.8
2018-08-16T02:30:02.035Z,95.81
2018-08-16T02:35:01.406Z,95.8
2018-08-16T02:40:02.217Z,95.83
2018-08-16T02:45:01.610Z,95.86
2018-08-16T02:50:01.880Z,95.95
2018-08-16T02:55:02.146Z,96.34
2018-08-16T03:00:01.415Z,96.47
2018-08-16T03:05:01.840Z,96.96
2018-08-16T03:10:01.203Z,97.26
2018-08-16T03:15:01.501Z,97.29
2018-08-16T03:20:01.971Z,97.44
2018-08-16T03:25:01.284Z,97.63
2018-08-16T03:30:01.568Z,97.65
2018-08-16T03:35:01.886Z,97.59
2018-08-16T03:40:02.203Z,98.25
2018-08-16T03:45:01.458Z,95.81
2018-08-16T03:50:01.846Z,98.08
2018-08-16T03:55:02.139Z,98.52
2018-08-16T04:00:01.457Z,95.96
2018-08-16T04:05:01.847Z,98.24
2018-08-16T04:10:02.171Z,95.92
2018-08-16T04:15:01.400Z,97.99
2018-08-16T04:20:01.838Z,98.69
2018-08-16T04:25:01.179Z,97.64
2018-08-16T04:30:01.443Z,98.25
2018-08-16T04:35:02.499Z,97.72
2018-08-16T04:40:01.865Z,98.69
2018-08-16T04:45:02.154Z,96.47
2018-08-16T04:50:01.429Z,96.39
2018-08-16T04:55:01.761Z,96.34
2018-08-16T05:00:01.993Z,98.79
2018-08-16T05:05:01.264Z,98.05
2018-08-16T05:10:01.527Z,96.39
2018-08-16T05:15:01.793Z,98.36
2018-08-16T05:20:02.190Z,98.4
2018-08-16T05:25:01.542Z,98.47
2018-08-16T05:30:01.795Z,98.56
2018-08-16T05:35:02.189Z,98.59
2018-08-16T05:40:01.502Z,98.62
2018-08-16T05:45:01.811Z,98.66
2018-08-16T05:50:02.183Z,98.76
2018-08-16T05:55:01.500Z,98.76
2018-08-16T06:00:01.757Z,98.6
2018-08-16T06:05:02.194Z,96.79
2018-08-16T06:10:01.546Z,96.5
2018-08-16T06:15:01.827Z,98.26
2018-08-16T06:20:02.155Z,96.79
2018-08-16T06:25:01.509Z,94.35
2018-08-16T06:30:01.842Z,92.93
2018-08-16T06:35:02.165Z,87.7
2018-08-16T06:40:01.521Z,84.61
2018-08-16T06:45:01.771Z,82.43
2018-08-16T06:50:02.205Z,82.44
2018-08-16T06:55:01.532Z,81.46
2018-08-16T07:00:01.900Z,80.62
2018-08-16T07:05:01.360Z,75.1
2018-08-16T07:10:01.636Z,74.83
2018-08-16T07:15:01.925Z,73.79
2018-08-16T07:20:01.215Z,72.68
2018-08-16T07:25:01.531Z,71.71
2018-08-16T07:30:02.086Z,71.68
2018-08-16T07:35:01.713Z,71.17
2018-08-16T07:40:02.026Z,69.79
2018-08-16T07:45:01.279Z,69.67
2018-08-16T07:50:01.663Z,70.21
2018-08-16T07:55:01.903Z,68.35
2018-08-16T08:00:01.152Z,68.47
2018-08-16T08:05:01.431Z,69.24
2018-08-16T08:10:01.802Z,68.34
2018-08-16T08:15:02.103Z,70.53
2018-08-16T08:20:01.393Z,69.07
2018-08-16T08:25:01.667Z,68.14
2018-08-16T08:30:01.912Z,66.29
2018-08-16T08:35:01.174Z,65.49
2018-08-16T08:40:01.400Z,66.28
2018-08-16T08:45:01.685Z,66.62
2018-08-16T08:50:01.975Z,66.74
2018-08-16T08:55:01.228Z,66.62
2018-08-16T09:00:01.486Z,66.28
2018-08-16T09:05:01.935Z,65.78
2018-08-16T09:10:01.255Z,63.87
2018-08-16T09:15:01.485Z,63.37
2018-08-16T09:20:01.877Z,66.29
2018-08-16T09:25:01.185Z,65.98
2018-08-16T09:30:01.440Z,66.15
2018-08-16T09:35:01.873Z,64.84
2018-08-16T09:40:02.185Z,64.77
2018-08-16T09:45:01.427Z,64.87
2018-08-16T09:50:01.846Z,66.46
2018-08-16T09:55:02.134Z,66.23
2018-08-16T10:00:01.414Z,62.24
2018-08-16T10:05:01.836Z,63.85
2018-08-16T10:10:02.109Z,62.2
2018-08-16T10:15:01.374Z,60.72
2018-08-16T10:20:01.779Z,61.68
2018-08-16T10:25:02.039Z,60.97
2018-08-16T10:30:01.318Z,59.42
2018-08-16T10:35:01.646Z,59.75
2018-08-16T10:40:02.019Z,61.03
2018-08-16T10:45:01.265Z,58.05
2018-08-16T10:50:01.535Z,52.52
2018-08-16T10:55:01.863Z,53.18
2018-08-16T11:00:02.274Z,53.9
2018-08-16T11:05:01.616Z,55.37
2018-08-16T11:10:01.921Z,57.6
2018-08-16T11:15:01.146Z,58.11
2018-08-16T11:20:01.404Z,59.09
2018-08-16T11:25:01.737Z,57.99
2018-08-16T11:30:02.020Z,58.17
2018-08-16T11:35:01.414Z,58.67
2018-08-16T11:40:01.782Z,58.35
2018-08-16T11:45:02.025Z,57.5
2018-08-16T11:50:01.307Z,57.45
2018-08-16T11:55:01.537Z,57.05
2018-08-16T12:00:01.801Z,56.66
2018-08-16T12:05:02.145Z,56.56
2018-08-16T12:10:01.455Z,56.51
2018-08-16T12:15:01.843Z,56.02
2018-08-16T12:20:01.240Z,55.71
2018-08-16T12:25:01.544Z,55.67
2018-08-16T12:30:01.795Z,55.49
2018-08-16T12:35:02.455Z,56.2
2018-08-16T12:40:01.931Z,57.11
2018-08-16T12:45:01.181Z,55.36
2018-08-16T12:50:01.416Z,54.32
2018-08-16T12:55:01.754Z,54.88
2018-08-16T13:00:01.999Z,54.15
2018-08-16T13:05:01.289Z,54.5
2018-08-16T13:10:01.533Z,53.88
2018-08-16T13:15:01.890Z,53.13
2018-08-16T13:20:01.251Z,53.87
2018-08-16T13:25:01.489Z,53.06
2018-08-16T13:30:01.914Z,52.63
2018-08-16T13:35:01.296Z,51.73
2018-08-16T13:40:01.603Z,51.26
2018-08-16T13:45:01.835Z,50.06
2018-08-16T13:50:02.270Z,49.68
2018-08-16T13:55:01.690Z,52.03
2018-08-16T14:00:02.081Z,51.58
2018-08-16T14:05:01.353Z,51
2018-08-16T14:10:01.644Z,50.9
2018-08-16T14:15:01.892Z,49.93
2018-08-16T14:20:01.180Z,50.54
2018-08-16T14:25:01.417Z,51.74
2018-08-16T14:30:01.733Z,49.93
2018-08-16T14:35:02.138Z,49.53
2018-08-16T14:40:01.462Z,48.26
2018-08-16T14:45:01.734Z,48.86
2018-08-16T14:50:02.161Z,47.78
2018-08-16T14:55:01.480Z,49.19
2018-08-16T15:00:01.773Z,45.57
2018-08-16T15:05:02.182Z,47.55
2018-08-16T15:10:01.510Z,48.96
2018-08-16T15:15:01.798Z,48
2018-08-16T15:20:02.138Z,48.07
2018-08-16T15:25:01.476Z,49.7
2018-08-16T15:30:01.783Z,47.09
2018-08-16T15:35:02.152Z,45.65
2018-08-16T15:40:01.459Z,47.14
2018-08-16T15:45:01.726Z,44.99
2018-08-16T15:50:02.080Z,42.79
2018-08-16T15:55:01.436Z,44.75
2018-08-16T16:00:01.699Z,46.1
2018-08-16T16:05:02.152Z,46.96
2018-08-16T16:10:01.446Z,42.24
2018-08-16T16:15:01.755Z,47.59
2018-08-16T16:20:02.191Z,50.33
2018-08-16T16:25:01.568Z,49.95
2018-08-16T16:30:01.865Z,51.2
2018-08-16T16:35:02.260Z,48.2
2018-08-16T16:40:01.620Z,47.62
2018-08-16T16:45:02.096Z,46.27
2018-08-16T16:50:01.680Z,45.98
2018-08-16T16:55:01.979Z,47.78
2018-08-16T17:00:01.231Z,49.75
2018-08-16T17:05:01.527Z,48.1
2018-08-16T17:10:01.875Z,47.74
2018-08-16T17:15:02.140Z,49.05
2018-08-16T17:20:01.384Z,48.04
2018-08-16T17:25:01.674Z,47.97
2018-08-16T17:30:01.900Z,49.14
2018-08-16T17:35:01.208Z,50.56
2018-08-16T17:40:01.444Z,50.29
2018-08-16T17:45:01.698Z,50.12
2018-08-16T17:50:02.024Z,50.45
2018-08-16T17:55:01.364Z,50.65
2018-08-16T18:00:01.625Z,51.41
2018-08-16T18:05:02.029Z,51.06
2018-08-16T18:10:01.374Z,52.14
2018-08-16T18:15:01.642Z,54.53
2018-08-16T18:20:02.088Z,57.29
2018-08-16T18:25:01.403Z,58.62
2018-08-16T18:30:01.684Z,59.14
2018-08-16T18:35:01.994Z,60.5
2018-08-16T18:40:01.232Z,61.19
2018-08-16T18:45:01.456Z,61.26
2018-08-16T18:50:01.868Z,62.68
2018-08-16T18:55:02.140Z,63.36
2018-08-16T19:00:01.357Z,63.63
2018-08-16T19:05:01.729Z,64.42
2018-08-16T19:10:02.040Z,65.76
2018-08-16T19:15:01.287Z,66.55
2018-08-16T19:20:01.581Z,66.97
2018-08-16T19:25:01.963Z,68.09
2018-08-16T19:30:01.473Z,68.73
2018-08-16T19:35:02.100Z,69.41
2018-08-16T19:40:01.399Z,70.89
2018-08-16T19:45:01.689Z,70.07
2018-08-16T19:50:02.075Z,71.17
2018-08-16T19:55:01.376Z,70.98
2018-08-16T20:00:01.632Z,71.27
2018-08-16T20:05:02.055Z,71.67
2018-08-16T20:10:01.712Z,73.58
2018-08-16T20:15:01.495Z,73.8
2018-08-16T20:20:01.895Z,73.99
2018-08-16T20:25:01.258Z,74.36
2018-08-16T20:30:01.504Z,74.72
2018-08-16T20:35:01.976Z,76.2
2018-08-16T20:40:01.263Z,76.19
2018-08-16T20:45:01.530Z,77.07
2018-08-16T20:50:01.955Z,77.25
2018-08-16T20:55:01.282Z,77.66
2018-08-16T21:00:01.523Z,78.25
2018-08-16T21:05:02.020Z,78.78
2018-08-16T21:10:01.362Z,79.06
2018-08-16T21:15:01.756Z,79.35
2018-08-16T21:20:01.241Z,79.75
2018-08-16T21:25:01.551Z,79.67
2018-08-16T21:30:01.804Z,79.72
2018-08-16T21:35:02.205Z,80.06
2018-08-16T21:40:01.528Z,80.64
2018-08-16T21:45:01.852Z,81.86
2018-08-16T21:50:02.201Z,81.72
2018-08-16T21:55:01.501Z,81.78
2018-08-16T22:00:01.748Z,81.81
2018-08-16T22:05:02.185Z,81.54
2018-08-16T22:10:01.501Z,81.74
2018-08-16T22:15:01.763Z,82.33
2018-08-16T22:20:02.207Z,82.47
2018-08-16T22:25:01.519Z,82.49
2018-08-16T22:30:01.794Z,82.66
2018-08-16T22:35:02.148Z,82.05
2018-08-16T22:40:01.491Z,82.86
2018-08-16T22:45:01.741Z,82.54
2018-08-16T22:50:02.110Z,82.24
2018-08-16T22:55:01.436Z,83.2
2018-08-16T23:00:01.755Z,83.15
2018-08-16T23:05:02.241Z,82.83
2018-08-16T23:10:01.670Z,83.35
2018-08-16T23:15:01.914Z,83.34
2018-08-16T23:20:01.243Z,84.02
2018-08-16T23:25:01.512Z,84.15
2018-08-16T23:30:01.767Z,84.37
2018-08-16T23:35:02.184Z,84.82
2018-08-16T23:40:01.485Z,85.28
2018-08-16T23:45:01.735Z,85.43
2018-08-16T23:50:02.097Z,86.14
2018-08-16T23:55:01.408Z,86.44
